createdAt,value
2022-11-27T05:30:37.358Z,97.04
2022-11-27T05:31:37.302Z,96.83
2022-11-27T05:32:37.205Z,97.04
2022-11-27T05:33:37.254Z,97.25
2022-11-27T05:34:37.307Z,96.94
2022-11-27T05:35:37.168Z,96.94
2022-11-27T05:36:37.170Z,96.83
2022-11-27T05:37:37.197Z,96.83
2022-11-27T05:38:37.149Z,96.83
2022-11-27T05:39:37.138Z,96.62
2022-11-27T05:40:37.127Z,97.25
2022-11-27T05:41:37.100Z,96.83
2022-11-27T05:42:37.129Z,96.73
2022-11-27T05:43:37.101Z,96.83
2022-11-27T05:44:37.198Z,97.04
2022-11-27T05:45:37.062Z,96.73
2022-11-27T05:46:37.208Z,96.83
2022-11-27T05:47:37.064Z,96.83
2022-11-27T05:48:37.030Z,96.89
2022-11-27T05:49:37.018Z,96.79
2022-11-27T05:50:37.029Z,96.94
2022-11-27T05:51:36.999Z,96.79
2022-11-27T05:52:36.994Z,96.69
2022-11-27T05:53:37.014Z,97.04
2022-11-27T05:54:36.986Z,96.69
2022-11-27T05:55:36.954Z,96.73
2022-11-27T05:56:36.948Z,96.79
2022-11-27T05:57:36.967Z,96.79
2022-11-27T05:58:36.917Z,97.00
2022-11-27T05:59:36.949Z,97.04
2022-11-27T06:00:36.904Z,96.31
2022-11-27T06:01:36.969Z,96.52
2022-11-27T06:02:37.126Z,96.37
2022-11-27T06:03:36.929Z,96.58
2022-11-27T06:04:36.952Z,96.17
2022-11-27T06:05:36.887Z,96.52
2022-11-27T06:06:36.875Z,96.17
2022-11-27T06:07:36.852Z,96.48
2022-11-27T06:08:36.818Z,96.27
2022-11-27T06:09:36.834Z,96.37
2022-11-27T06:10:36.804Z,96.27
2022-11-27T06:11:36.786Z,96.69
2022-11-27T06:12:36.779Z,96.58
2022-11-27T06:13:36.808Z,96.69
2022-11-27T06:14:36.760Z,96.48
2022-11-27T06:15:36.739Z,96.58
2022-11-27T06:16:36.788Z,96.58
2022-11-27T06:17:36.744Z,96.69
2022-11-27T06:18:41.869Z,96.48
2022-11-27T06:19:37.806Z,96.58
2022-11-27T06:20:40.903Z,96.69
2022-11-27T06:21:36.681Z,96.58
2022-11-27T06:22:36.685Z,96.69
2022-11-27T06:23:36.662Z,96.48
2022-11-27T06:24:36.640Z,96.48
2022-11-27T06:25:36.655Z,96.58
2022-11-27T06:26:36.615Z,96.06
2022-11-27T06:27:36.633Z,96.06
2022-11-27T06:28:36.594Z,95.92
2022-11-27T06:29:36.610Z,95.75
2022-11-27T06:30:36.573Z,95.65
2022-11-27T06:31:36.670Z,95.75
2022-11-27T06:32:36.548Z,95.75
2022-11-27T06:33:36.543Z,95.96
2022-11-27T06:34:36.567Z,95.65
2022-11-27T06:35:36.632Z,95.71
2022-11-27T06:36:36.514Z,95.61
2022-11-27T06:37:36.564Z,95.71
2022-11-27T06:38:36.538Z,95.75
2022-11-27T06:39:36.493Z,95.81
2022-11-27T06:40:36.469Z,95.61
2022-11-27T06:41:36.465Z,95.75
2022-11-27T06:42:36.450Z,95.81
2022-11-27T06:43:36.471Z,95.50
2022-11-27T06:44:36.450Z,95.81
2022-11-27T06:45:37.188Z,95.61
2022-11-27T06:46:36.414Z,95.71
2022-11-27T06:47:36.397Z,95.40
2022-11-27T06:48:36.389Z,95.40
2022-11-27T06:49:36.418Z,95.71
2022-11-27T06:50:36.404Z,95.50
2022-11-27T06:51:36.479Z,95.61
2022-11-27T06:52:40.402Z,95.71
2022-11-27T06:53:36.341Z,95.19
2022-11-27T06:54:36.316Z,95.71
2022-11-27T06:55:36.313Z,95.19
2022-11-27T06:56:36.296Z,95.40
2022-11-27T06:57:36.323Z,95.81
2022-11-27T06:58:36.275Z,95.61
2022-11-27T06:59:36.287Z,95.92
2022-11-27T07:00:36.295Z,95.61
2022-11-27T07:01:36.454Z,95.40
2022-11-27T07:02:36.384Z,95.40
2022-11-27T07:03:36.258Z,95.67
2022-11-27T07:04:36.208Z,95.40
2022-11-27T07:05:36.219Z,95.50
2022-11-27T07:06:36.196Z,94.89
2022-11-27T07:07:39.778Z,95.19
2022-11-27T07:08:37.200Z,95.36
2022-11-27T07:09:36.173Z,95.29
2022-11-27T07:10:36.151Z,95.36
2022-11-27T07:11:36.261Z,95.61
2022-11-27T07:12:36.120Z,95.15
2022-11-27T07:13:36.147Z,95.25
2022-11-27T07:14:36.109Z,95.46
2022-11-27T07:15:36.124Z,95.46
2022-11-27T07:16:36.177Z,95.36
2022-11-27T07:17:36.094Z,94.84
2022-11-27T07:18:36.126Z,94.94
2022-11-27T07:19:36.054Z,95.15
2022-11-27T07:20:36.043Z,95.15
2022-11-27T07:21:36.034Z,95.15
2022-11-27T07:22:36.051Z,94.94
2022-11-27T07:23:36.122Z,95.15
2022-11-27T07:24:36.012Z,94.94
2022-11-27T07:25:35.989Z,94.94
2022-11-27T07:26:35.996Z,95.04
2022-11-27T07:27:35.994Z,94.94
2022-11-27T07:28:35.979Z,94.73
2022-11-27T07:29:36.003Z,94.94
2022-11-27T07:30:35.952Z,95.15
2022-11-27T07:31:35.990Z,94.63
2022-11-27T07:32:35.910Z,94.63
2022-11-27T07:33:35.911Z,94.43
2022-11-27T07:34:35.982Z,94.69
2022-11-27T07:35:35.879Z,94.22
2022-11-27T07:36:35.904Z,94.48
2022-11-27T07:37:35.860Z,94.59
2022-11-27T07:38:35.854Z,94.69
2022-11-27T07:40:00.850Z,94.59
2022-11-27T07:40:36.905Z,94.79
2022-11-27T07:41:36.308Z,94.59
2022-11-27T07:42:38.437Z,94.48
2022-11-27T07:43:35.792Z,94.69
2022-11-27T07:44:35.775Z,94.79
2022-11-27T07:45:35.851Z,94.79
2022-11-27T07:46:35.785Z,94.48
2022-11-27T07:47:35.773Z,94.59
2022-11-27T07:48:35.747Z,94.59
2022-11-27T07:49:35.742Z,94.28
2022-11-27T07:50:35.750Z,94.38
2022-11-27T07:51:35.712Z,94.69
2022-11-27T07:52:41.071Z,94.79
2022-11-27T07:53:36.683Z,94.48
2022-11-27T07:54:35.675Z,94.59
2022-11-27T07:55:35.789Z,94.59
2022-11-27T07:56:35.668Z,94.59
2022-11-27T07:57:35.669Z,94.48
2022-11-27T07:58:35.648Z,94.69
2022-11-27T07:59:35.639Z,94.59
2022-11-27T08:00:35.650Z,94.59
2022-11-27T08:01:35.717Z,94.59
2022-11-27T08:02:35.588Z,94.65
2022-11-27T08:03:35.600Z,94.75
2022-11-27T08:04:35.624Z,94.90
2022-11-27T08:05:35.558Z,94.85
2022-11-27T08:06:35.570Z,94.34
2022-11-27T08:07:35.620Z,94.54
2022-11-27T08:08:35.522Z,94.65
2022-11-27T08:09:35.538Z,94.65
2022-11-27T08:10:35.538Z,94.85
2022-11-27T08:11:35.637Z,94.28
2022-11-27T08:12:35.479Z,94.54
2022-11-27T08:13:35.501Z,94.75
2022-11-27T08:14:35.472Z,94.85
2022-11-27T08:15:35.576Z,94.54
2022-11-27T08:16:35.569Z,94.13
2022-11-27T08:17:35.441Z,94.03
2022-11-27T08:18:35.491Z,94.34
2022-11-27T08:19:35.415Z,94.03
2022-11-27T08:20:35.466Z,93.82
2022-11-27T08:21:35.432Z,94.19
2022-11-27T08:22:35.376Z,93.51
2022-11-27T08:23:35.367Z,94.23
2022-11-27T08:24:35.490Z,94.29
2022-11-27T08:25:35.360Z,94.09
2022-11-27T08:26:35.351Z,94.19
2022-11-27T08:27:35.461Z,94.09
2022-11-27T08:28:35.315Z,94.09
2022-11-27T08:29:35.346Z,94.09
2022-11-27T08:30:35.297Z,94.40
2022-11-27T08:31:35.380Z,94.29
2022-11-27T08:32:35.367Z,94.19
2022-11-27T08:33:35.350Z,94.09
2022-11-27T08:34:35.242Z,94.29
2022-11-27T08:35:35.236Z,94.19
2022-11-27T08:36:35.248Z,94.29
2022-11-27T08:37:35.311Z,94.29
2022-11-27T08:38:35.224Z,93.98
2022-11-27T08:39:35.225Z,93.98
2022-11-27T08:40:35.260Z,94.09
2022-11-27T08:41:35.249Z,94.77
2022-11-27T08:42:35.356Z,94.25
2022-11-27T08:43:35.345Z,94.56
2022-11-27T08:44:37.194Z,94.19
2022-11-27T08:45:35.430Z,94.15
2022-11-27T08:46:35.906Z,94.15
2022-11-27T08:47:35.433Z,94.35
2022-11-27T08:48:37.255Z,93.84
2022-11-27T08:49:36.992Z,93.43
2022-11-27T08:50:35.083Z,93.84
2022-11-27T08:51:35.157Z,93.73
2022-11-27T08:52:35.183Z,93.94
2022-11-27T08:53:35.202Z,93.63
2022-11-27T08:54:35.386Z,93.43
2022-11-27T08:55:35.079Z,93.73
2022-11-27T08:56:35.266Z,93.53
2022-11-27T08:57:35.151Z,93.84
2022-11-27T08:58:35.816Z,93.63
2022-11-27T08:59:35.178Z,93.63
2022-11-27T09:00:35.114Z,93.12
2022-11-27T09:01:35.119Z,93.53
2022-11-27T09:02:34.998Z,93.22
2022-11-27T09:03:34.992Z,93.01
2022-11-27T09:04:35.043Z,93.59
2022-11-27T09:05:35.365Z,93.49
2022-11-27T09:06:35.534Z,93.63
2022-11-27T09:07:35.267Z,93.84
2022-11-27T09:08:34.913Z,93.49
2022-11-27T09:09:34.945Z,93.32
2022-11-27T09:10:35.068Z,93.59
2022-11-27T09:11:35.426Z,93.38
2022-11-27T09:12:38.232Z,93.69
2022-11-27T09:13:34.906Z,93.28
2022-11-27T09:14:35.227Z,92.97
2022-11-27T09:15:34.953Z,93.18
2022-11-27T09:16:34.948Z,93.03
2022-11-27T09:17:34.926Z,94.21
2022-11-27T09:18:34.858Z,93.38
2022-11-27T09:19:34.796Z,92.97
2022-11-27T09:20:35.179Z,92.82
2022-11-27T09:21:34.828Z,92.31
2022-11-27T09:22:34.762Z,92.41
2022-11-27T09:23:34.814Z,92.21
2022-11-27T09:24:34.840Z,92.61
2022-11-27T09:25:34.828Z,93.30
2022-11-27T09:26:34.737Z,92.37
2022-11-27T09:27:35.040Z,92.16
2022-11-27T09:28:34.784Z,91.75
2022-11-27T09:29:35.008Z,91.24
2022-11-27T09:30:34.688Z,91.24
2022-11-27T09:31:34.825Z,90.82
2022-11-27T09:32:34.674Z,91.44
2022-11-27T09:33:34.638Z,90.92
2022-11-27T09:34:37.492Z,91.24
2022-11-27T09:35:36.314Z,91.96
2022-11-27T09:36:34.686Z,92.06
2022-11-27T09:37:34.640Z,91.64
2022-11-27T09:38:34.728Z,92.06
2022-11-27T09:39:34.583Z,92.00
2022-11-27T09:40:34.607Z,91.69
2022-11-27T09:41:34.556Z,92.10
2022-11-27T09:42:34.886Z,92.51
2022-11-27T09:43:34.663Z,91.79
2022-11-27T09:44:34.504Z,91.79
2022-11-27T09:45:34.908Z,92.47
2022-11-27T09:46:34.623Z,92.51
2022-11-27T09:47:38.460Z,92.57
2022-11-27T09:48:36.916Z,92.57
2022-11-27T09:49:34.531Z,92.47
2022-11-27T09:50:34.471Z,92.06
2022-11-27T09:51:34.520Z,92.57
2022-11-27T09:52:37.215Z,91.96
2022-11-27T09:53:34.578Z,92.37
2022-11-27T09:54:34.524Z,92.27
2022-11-27T09:55:34.432Z,91.54
2022-11-27T09:56:35.045Z,91.75
2022-11-27T09:57:34.464Z,91.85
2022-11-27T09:58:34.547Z,91.64
2022-11-27T09:59:34.363Z,91.75
2022-11-27T10:00:34.387Z,91.30
2022-11-27T10:01:43.090Z,91.19
2022-11-27T10:02:35.475Z,91.19
2022-11-27T10:03:34.580Z,90.67
2022-11-27T10:04:58.016Z,90.26
2022-11-27T10:05:35.326Z,90.43
2022-11-27T10:06:34.487Z,90.12
2022-11-27T10:07:34.607Z,89.81
2022-11-27T10:08:34.381Z,89.91
2022-11-27T10:09:34.260Z,89.50
2022-11-27T10:10:34.275Z,89.50
2022-11-27T10:11:34.223Z,89.50
2022-11-27T10:12:35.099Z,89.71
2022-11-27T10:13:34.210Z,89.19
2022-11-27T10:14:34.283Z,89.71
2022-11-27T10:15:34.280Z,89.19
2022-11-27T10:16:34.286Z,89.91
2022-11-27T10:17:34.337Z,90.06
2022-11-27T10:18:34.252Z,89.71
2022-11-27T10:19:34.305Z,89.75
2022-11-27T10:20:34.467Z,89.71
2022-11-27T10:21:34.122Z,89.71
2022-11-27T10:22:34.166Z,89.91
2022-11-27T10:23:34.152Z,90.64
2022-11-27T10:24:34.074Z,90.43
2022-11-27T10:25:34.105Z,89.87
2022-11-27T10:26:34.372Z,89.77
2022-11-27T10:27:34.092Z,89.67
2022-11-27T10:28:34.067Z,89.46
2022-11-27T10:29:47.109Z,89.15
2022-11-27T10:30:35.082Z,89.87
2022-11-27T10:31:34.071Z,89.05
2022-11-27T10:32:54.698Z,89.87
2022-11-27T10:33:35.194Z,89.31
2022-11-27T10:34:34.215Z,89.83
2022-11-27T10:35:34.120Z,88.90
2022-11-27T10:36:33.953Z,88.39
2022-11-27T10:37:34.019Z,88.08
2022-11-27T10:38:34.052Z,87.67
2022-11-27T10:39:33.936Z,87.77
2022-11-27T10:40:34.258Z,87.71
2022-11-27T10:41:48.624Z,87.77
2022-11-27T10:42:34.929Z,87.77
2022-11-27T10:43:33.893Z,87.77
2022-11-27T10:44:33.983Z,87.46
2022-11-27T10:45:33.903Z,87.77
2022-11-27T10:46:33.866Z,87.87
2022-11-27T10:47:34.206Z,87.87
2022-11-27T10:48:33.879Z,87.87
2022-11-27T10:49:33.817Z,87.46
2022-11-27T10:50:33.807Z,87.67
2022-11-27T10:51:33.921Z,87.77
2022-11-27T10:52:33.846Z,87.77
2022-11-27T10:53:47.775Z,87.26
2022-11-27T10:55:45.476Z,87.57
2022-11-27T10:56:45.836Z,87.42
2022-11-27T10:57:45.457Z,87.46
2022-11-27T10:58:45.811Z,87.32
2022-11-27T10:59:45.605Z,87.73
2022-11-27T11:00:46.063Z,87.73
2022-11-27T11:01:45.468Z,87.36
2022-11-27T11:02:45.614Z,87.46
2022-11-27T11:03:53.439Z,87.05
2022-11-27T11:04:51.099Z,87.42
2022-11-27T11:06:12.128Z,86.74
2022-11-27T11:06:46.401Z,86.85
2022-11-27T11:07:45.368Z,87.26
2022-11-27T11:08:45.350Z,86.43
2022-11-27T11:09:45.256Z,86.29
2022-11-27T11:10:47.074Z,86.95
2022-11-27T11:11:45.239Z,87.52
2022-11-27T11:12:53.680Z,86.80
2022-11-27T11:15:08.098Z,86.19
2022-11-27T11:16:10.940Z,86.19
2022-11-27T11:17:08.054Z,86.60
2022-11-27T11:18:08.007Z,86.33
2022-11-27T11:19:08.013Z,86.43
2022-11-27T11:20:08.057Z,86.54
2022-11-27T11:21:07.944Z,86.40
2022-11-27T11:22:13.319Z,86.19
2022-11-27T11:23:07.962Z,86.29
2022-11-27T11:24:07.926Z,86.50
2022-11-27T11:25:08.203Z,86.13
2022-11-27T11:26:07.957Z,86.40
2022-11-27T11:27:07.915Z,86.29
2022-11-27T11:28:07.921Z,86.19
2022-11-27T11:29:08.209Z,86.19
2022-11-27T11:30:07.865Z,85.12
2022-11-27T11:31:07.862Z,86.15
2022-11-27T11:33:24.100Z,86.15
2022-11-27T11:35:48.202Z,85.43
2022-11-27T11:36:42.757Z,85.43
2022-11-27T11:37:56.561Z,85.90
2022-11-27T11:38:42.013Z,85.43
2022-11-27T11:39:43.589Z,85.12
2022-11-27T11:41:53.490Z,86.35
2022-11-27T11:43:00.737Z,86.05
2022-11-27T11:43:52.856Z,85.39
2022-11-27T11:44:53.444Z,85.33
2022-11-27T11:45:52.851Z,85.49
2022-11-27T11:46:52.830Z,85.33
2022-11-27T11:47:52.811Z,85.22
2022-11-27T11:48:52.783Z,85.49
2022-11-27T11:49:52.749Z,85.22
2022-11-27T11:50:52.747Z,85.12
2022-11-27T11:51:52.773Z,85.43
2022-11-27T11:52:52.728Z,85.22
2022-11-27T11:53:52.840Z,85.94
2022-11-27T11:54:52.700Z,85.94
2022-11-27T11:55:52.689Z,86.35
2022-11-27T11:56:52.874Z,86.05
2022-11-27T11:57:52.699Z,86.25
2022-11-27T11:58:52.871Z,85.94
2022-11-27T11:59:52.689Z,85.74
2022-11-27T12:01:19.269Z,86.25
2022-11-27T12:01:53.706Z,86.15
2022-11-27T12:02:52.651Z,86.29
2022-11-27T12:03:52.622Z,86.25
2022-11-27T12:04:52.827Z,86.56
2022-11-27T12:05:52.657Z,86.25
2022-11-27T12:06:52.594Z,86.25
2022-11-27T12:07:52.837Z,86.56
2022-11-27T12:08:52.547Z,86.56
2022-11-27T12:09:52.667Z,86.97
2022-11-27T12:10:52.604Z,86.25
2022-11-27T12:11:52.638Z,86.35
2022-11-27T12:12:52.510Z,86.35
2022-11-27T12:13:52.498Z,86.35
2022-11-27T12:14:52.536Z,86.35
2022-11-27T12:15:52.674Z,86.05
2022-11-27T12:16:52.608Z,85.94
2022-11-27T12:17:52.568Z,85.94
2022-11-27T12:18:52.487Z,86.15
2022-11-27T12:19:52.559Z,86.25
2022-11-27T12:20:52.443Z,85.43
2022-11-27T12:21:52.435Z,86.15
2022-11-27T12:22:52.446Z,85.94
2022-11-27T12:23:52.406Z,86.46
2022-11-27T12:24:52.440Z,85.63
2022-11-27T12:25:52.472Z,85.33
2022-11-27T12:26:52.373Z,86.15
2022-11-27T12:27:52.364Z,86.25
2022-11-27T12:28:58.830Z,85.43
2022-11-27T12:29:53.343Z,86.15
2022-11-27T12:32:13.915Z,86.25
2022-11-27T12:33:14.362Z,86.25
2022-11-27T12:34:13.764Z,85.94
2022-11-27T12:35:13.752Z,86.25
2022-11-27T12:36:13.791Z,85.63
2022-11-27T12:37:14.311Z,85.43
2022-11-27T12:38:13.772Z,85.53
2022-11-27T12:39:13.736Z,85.63
2022-11-27T12:40:13.753Z,85.43
2022-11-27T12:41:13.793Z,85.43
2022-11-27T12:42:17.755Z,85.43
2022-11-27T12:43:14.707Z,85.33
2022-11-27T12:44:13.650Z,85.43
2022-11-27T12:45:15.419Z,86.15
2022-11-27T12:46:13.682Z,86.25
2022-11-27T12:47:13.646Z,86.15
2022-11-27T12:48:13.609Z,85.53
2022-11-27T12:49:13.626Z,85.63
2022-11-27T12:50:13.674Z,85.33
2022-11-27T12:51:13.595Z,85.22
2022-11-27T12:52:13.616Z,85.33
2022-11-27T12:53:13.569Z,85.12
2022-11-27T12:54:13.571Z,85.74
2022-11-27T12:55:13.543Z,85.74
2022-11-27T12:56:13.520Z,85.43
2022-11-27T12:57:13.632Z,85.53
2022-11-27T12:58:13.491Z,85.22
2022-11-27T12:59:13.524Z,85.02
2022-11-27T13:00:13.508Z,85.53
2022-11-27T13:01:13.627Z,85.53
2022-11-27T13:02:13.540Z,85.63
2022-11-27T13:03:13.446Z,85.12
2022-11-27T13:04:13.465Z,85.63
2022-11-27T13:05:13.421Z,85.43
2022-11-27T13:06:13.411Z,85.63
2022-11-27T13:07:13.499Z,85.22
2022-11-27T13:08:13.413Z,85.53
2022-11-27T13:09:13.373Z,85.12
2022-11-27T13:10:13.458Z,85.12
2022-11-27T13:11:13.363Z,85.53
2022-11-27T13:12:13.343Z,85.02
2022-11-27T13:13:13.460Z,85.43
2022-11-27T13:14:13.344Z,85.43
2022-11-27T13:15:13.316Z,85.43
2022-11-27T13:16:13.339Z,85.12
2022-11-27T13:17:13.292Z,83.99
2022-11-27T13:18:13.279Z,84.30
2022-11-27T13:19:13.287Z,84.91
2022-11-27T13:20:13.258Z,84.50
2022-11-27T13:21:13.251Z,84.26
2022-11-27T13:22:13.259Z,84.40
2022-11-27T13:23:13.235Z,84.40
2022-11-27T13:24:13.238Z,84.40
2022-11-27T13:25:13.222Z,84.40
2022-11-27T13:26:13.196Z,84.20
2022-11-27T13:27:13.186Z,83.89
2022-11-27T13:28:13.193Z,84.50
2022-11-27T13:29:13.279Z,84.40
2022-11-27T13:30:13.172Z,84.98
2022-11-27T13:31:13.192Z,84.71
2022-11-27T13:32:13.137Z,84.40
2022-11-27T13:33:13.121Z,84.50
2022-11-27T13:34:13.110Z,83.78
2022-11-27T13:35:13.125Z,84.26
2022-11-27T13:36:13.085Z,84.20
2022-11-27T13:37:13.081Z,84.61
2022-11-27T13:38:13.079Z,84.61
2022-11-27T13:39:13.058Z,85.33
2022-11-27T13:40:13.060Z,85.33
2022-11-27T13:41:13.063Z,85.22
2022-11-27T13:42:13.020Z,85.12
2022-11-27T13:43:13.017Z,85.33
2022-11-27T13:44:13.021Z,85.43
2022-11-27T13:45:13.130Z,85.43
2022-11-27T13:46:13.024Z,85.22
2022-11-27T13:47:12.999Z,85.12
2022-11-27T13:48:12.958Z,85.33
2022-11-27T13:49:12.950Z,85.22
2022-11-27T13:50:12.980Z,85.22
2022-11-27T13:51:12.931Z,85.63
2022-11-27T13:52:12.915Z,85.53
2022-11-27T13:53:12.924Z,85.43
2022-11-27T13:54:12.894Z,85.43
2022-11-27T13:55:12.888Z,85.94
2022-11-27T13:56:12.886Z,86.05
2022-11-27T13:57:12.863Z,86.05
2022-11-27T13:58:12.851Z,85.43
2022-11-27T13:59:12.864Z,86.15
2022-11-27T14:00:12.830Z,85.94
2022-11-27T14:01:13.062Z,86.15
2022-11-27T14:02:12.903Z,85.33
2022-11-27T14:03:12.825Z,85.53
2022-11-27T14:04:12.783Z,85.33
2022-11-27T14:05:12.801Z,86.05
2022-11-27T14:06:12.774Z,85.53
2022-11-27T14:07:12.792Z,85.12
2022-11-27T14:08:12.767Z,85.53
2022-11-27T14:09:12.753Z,86.15
2022-11-27T14:10:12.720Z,85.94
2022-11-27T14:11:12.735Z,86.15
2022-11-27T14:12:12.710Z,86.15
2022-11-27T14:13:12.690Z,86.15
2022-11-27T14:14:12.680Z,86.25
2022-11-27T14:15:12.668Z,86.25
2022-11-27T14:16:12.745Z,86.46
2022-11-27T14:17:12.757Z,87.52
2022-11-27T14:18:12.633Z,86.91
2022-11-27T14:19:12.625Z,87.42
2022-11-27T14:20:12.607Z,87.73
2022-11-27T14:21:12.609Z,88.86
2022-11-27T14:22:12.618Z,88.86
2022-11-27T14:23:13.660Z,88.76
2022-11-27T14:24:12.569Z,88.56
2022-11-27T14:25:12.558Z,88.56
2022-11-27T14:26:15.124Z,88.35
2022-11-27T14:27:12.536Z,87.67
2022-11-27T14:28:12.527Z,88.70
2022-11-27T14:29:12.534Z,88.35
2022-11-27T14:30:12.505Z,88.56
2022-11-27T14:31:12.551Z,89.11
2022-11-27T14:32:12.487Z,88.90
2022-11-27T14:33:12.584Z,89.01
2022-11-27T14:34:17.745Z,89.11
2022-11-27T14:35:13.462Z,88.70
2022-11-27T14:36:12.451Z,88.80
2022-11-27T14:37:12.471Z,89.31
2022-11-27T14:38:12.425Z,88.90
2022-11-27T14:39:12.428Z,89.52
2022-11-27T14:40:12.390Z,88.90
2022-11-27T14:41:12.402Z,89.01
2022-11-27T14:42:12.369Z,89.42
2022-11-27T14:43:12.365Z,89.62
2022-11-27T14:44:12.358Z,88.90
2022-11-27T14:45:12.358Z,88.90
2022-11-27T14:46:12.386Z,88.80
2022-11-27T14:47:12.408Z,88.70
2022-11-27T14:48:12.308Z,88.80
2022-11-27T14:49:12.414Z,88.70
2022-11-27T14:50:12.306Z,88.18
2022-11-27T14:51:12.304Z,88.49
2022-11-27T14:52:12.288Z,88.39
2022-11-27T14:53:12.292Z,87.77
2022-11-27T14:54:12.254Z,88.59
2022-11-27T14:55:12.248Z,88.59
2022-11-27T14:56:12.237Z,88.90
2022-11-27T14:57:12.234Z,88.90
2022-11-27T14:58:12.201Z,88.59
2022-11-27T14:59:12.222Z,87.87
2022-11-27T15:00:12.185Z,87.98
2022-11-27T15:01:12.218Z,88.18
2022-11-27T15:02:12.253Z,88.23
2022-11-27T15:03:12.422Z,88.02
2022-11-27T15:04:12.151Z,87.77
2022-11-27T15:05:12.244Z,87.81
2022-11-27T15:06:12.118Z,87.60
2022-11-27T15:07:12.151Z,87.60
2022-11-27T15:08:12.252Z,87.98
2022-11-27T15:09:30.666Z,88.43
2022-11-27T15:10:13.071Z,88.08
2022-11-27T15:11:12.092Z,87.67
2022-11-27T15:12:12.056Z,88.23
2022-11-27T15:13:12.045Z,88.02
2022-11-27T15:14:12.052Z,87.51
2022-11-27T15:15:12.024Z,88.08
2022-11-27T15:16:12.028Z,88.39
2022-11-27T15:17:12.024Z,88.08
2022-11-27T15:18:12.014Z,88.29
2022-11-27T15:19:11.980Z,88.33
2022-11-27T15:20:11.967Z,88.74
2022-11-27T15:21:12.099Z,88.53
2022-11-27T15:22:11.942Z,87.51
2022-11-27T15:23:11.954Z,88.02
2022-11-27T15:24:11.924Z,87.92
2022-11-27T15:25:11.910Z,88.74
2022-11-27T15:26:16.001Z,88.84
2022-11-27T15:27:12.897Z,88.74
2022-11-27T15:28:11.879Z,89.56
2022-11-27T15:29:11.893Z,89.67
2022-11-27T15:30:11.918Z,89.46
2022-11-27T15:31:11.928Z,89.46
2022-11-27T15:32:11.838Z,90.08
2022-11-27T15:33:11.838Z,89.71
2022-11-27T15:34:11.821Z,90.49
2022-11-27T15:35:11.832Z,90.43
2022-11-27T15:36:11.803Z,90.53
2022-11-27T15:37:11.920Z,91.42
2022-11-27T15:38:11.774Z,90.43
2022-11-27T15:39:11.770Z,91.05
2022-11-27T15:40:11.751Z,90.94
2022-11-27T15:41:11.769Z,91.15
2022-11-27T15:42:11.738Z,90.64
2022-11-27T15:43:11.748Z,91.25
2022-11-27T15:44:11.707Z,91.56
2022-11-27T15:45:11.701Z,91.36
2022-11-27T15:46:11.719Z,91.15
2022-11-27T15:47:11.703Z,91.46
2022-11-27T15:48:11.694Z,91.05
2022-11-27T15:49:11.679Z,91.25
2022-11-27T15:50:11.664Z,91.15
2022-11-27T15:51:11.643Z,91.36
2022-11-27T15:52:11.627Z,91.25
2022-11-27T15:53:17.654Z,91.36
2022-11-27T15:54:12.722Z,91.66
2022-11-27T15:55:11.596Z,91.36
2022-11-27T15:56:11.586Z,91.46
2022-11-27T15:57:11.575Z,91.56
2022-11-27T15:58:11.585Z,91.46
2022-11-27T15:59:11.591Z,91.66
2022-11-27T16:00:11.554Z,92.33
2022-11-27T16:01:11.593Z,91.81
2022-11-27T16:02:17.239Z,92.38
2022-11-27T16:03:12.516Z,92.38
2022-11-27T16:04:11.541Z,93.35
2022-11-27T16:05:11.550Z,93.15
2022-11-27T16:06:11.479Z,93.25
2022-11-27T16:07:11.528Z,93.15
2022-11-27T16:08:11.491Z,92.94
2022-11-27T16:09:11.448Z,93.15
2022-11-27T16:10:11.596Z,93.15
2022-11-27T16:11:11.449Z,93.25
2022-11-27T16:12:11.415Z,93.25
2022-11-27T16:13:11.406Z,92.74
2022-11-27T16:14:11.392Z,92.84
2022-11-27T16:15:11.386Z,93.46
2022-11-27T16:16:11.436Z,94.18
2022-11-27T16:17:11.383Z,93.09
2022-11-27T16:18:11.345Z,92.74
2022-11-27T16:19:11.344Z,93.19
2022-11-27T16:20:11.328Z,94.23
2022-11-27T16:21:11.321Z,93.91
2022-11-27T16:22:11.338Z,93.87
2022-11-27T16:23:11.317Z,94.28
2022-11-27T16:24:11.285Z,93.98
2022-11-27T16:25:11.291Z,94.38
2022-11-27T16:26:11.383Z,94.18
2022-11-27T16:27:11.270Z,93.46
2022-11-27T16:28:11.240Z,93.71
2022-11-27T16:29:11.265Z,93.87
2022-11-27T16:30:11.222Z,94.53
2022-11-27T16:31:11.295Z,94.32
2022-11-27T16:32:11.277Z,94.64
2022-11-27T16:33:11.191Z,94.02
2022-11-27T16:34:11.182Z,94.02
2022-11-27T16:35:11.198Z,93.91
2022-11-27T16:36:11.154Z,94.32
2022-11-27T16:37:15.561Z,94.53
2022-11-27T16:38:12.174Z,94.64
2022-11-27T16:39:11.123Z,94.64
2022-11-27T16:40:11.107Z,93.91
2022-11-27T16:41:11.125Z,93.25
2022-11-27T16:42:11.231Z,93.19
2022-11-27T16:43:11.085Z,93.46
2022-11-27T16:44:11.091Z,93.66
2022-11-27T16:45:11.091Z,93.98
2022-11-27T16:46:11.111Z,94.49
2022-11-27T16:47:11.062Z,93.91
2022-11-27T16:48:11.030Z,93.60
2022-11-27T16:49:11.044Z,93.60
2022-11-27T16:50:11.001Z,94.43
2022-11-27T16:51:10.999Z,94.12
2022-11-27T16:52:10.984Z,94.08
2022-11-27T16:53:10.987Z,94.53
2022-11-27T16:54:11.007Z,94.28
2022-11-27T16:55:10.989Z,94.38
2022-11-27T16:56:10.950Z,94.12
2022-11-27T16:57:10.932Z,93.91
2022-11-27T16:58:16.900Z,94.32
2022-11-27T16:59:12.016Z,93.87
2022-11-27T17:00:10.898Z,94.18
2022-11-27T17:01:11.035Z,94.28
2022-11-27T17:02:10.964Z,94.32
2022-11-27T17:03:10.875Z,94.18
2022-11-27T17:04:10.856Z,94.28
2022-11-27T17:05:10.862Z,94.43
2022-11-27T17:06:10.844Z,94.23
2022-11-27T17:07:11.050Z,94.32
2022-11-27T17:08:10.816Z,94.02
2022-11-27T17:09:10.797Z,94.64
2022-11-27T17:10:10.796Z,94.43
2022-11-27T17:11:10.816Z,94.43
2022-11-27T17:12:10.773Z,94.64
2022-11-27T17:13:10.755Z,94.53
2022-11-27T17:14:10.768Z,94.32
2022-11-27T17:15:10.883Z,94.64
2022-11-27T17:16:10.802Z,94.95
2022-11-27T17:17:10.735Z,94.74
2022-11-27T17:18:10.704Z,94.64
2022-11-27T17:19:10.727Z,94.64
2022-11-27T17:20:10.683Z,95.15
2022-11-27T17:21:10.680Z,95.15
2022-11-27T17:22:10.670Z,95.25
2022-11-27T17:23:10.661Z,94.84
2022-11-27T17:24:15.014Z,95.36
2022-11-27T17:25:10.646Z,95.36
2022-11-27T17:26:10.624Z,95.36
2022-11-27T17:27:10.612Z,95.36
2022-11-27T17:28:10.598Z,96.18
2022-11-27T17:29:10.606Z,96.28
2022-11-27T17:30:10.581Z,95.25
2022-11-27T17:31:10.768Z,95.25
2022-11-27T17:32:10.624Z,95.40
2022-11-27T17:33:10.546Z,95.25
2022-11-27T17:34:10.542Z,95.36
2022-11-27T17:35:10.573Z,95.56
2022-11-27T17:36:10.510Z,95.36
2022-11-27T17:37:10.525Z,95.67
2022-11-27T17:38:10.513Z,96.33
2022-11-27T17:39:10.479Z,96.12
2022-11-27T17:40:10.467Z,95.98
2022-11-27T17:41:10.492Z,96.02
2022-11-27T17:42:13.876Z,95.36
2022-11-27T17:43:11.438Z,95.61
2022-11-27T17:44:10.425Z,95.50
2022-11-27T17:45:10.413Z,96.12
2022-11-27T17:46:10.454Z,95.71
2022-11-27T17:47:10.508Z,96.12
2022-11-27T17:48:10.405Z,96.33
2022-11-27T17:49:10.371Z,96.53
2022-11-27T17:50:10.362Z,96.64
2022-11-27T17:51:10.351Z,96.33
2022-11-27T17:52:10.338Z,96.44
2022-11-27T17:53:10.360Z,96.17
2022-11-27T17:54:10.320Z,96.02
2022-11-27T17:55:10.303Z,96.44
2022-11-27T17:56:10.301Z,96.23
2022-11-27T17:57:10.283Z,97.05
2022-11-27T17:58:10.298Z,96.95
2022-11-27T17:59:10.297Z,96.74
2022-11-27T18:00:10.253Z,96.64
2022-11-27T18:01:10.331Z,96.74
2022-11-27T18:02:10.300Z,96.74
2022-11-27T18:03:10.325Z,96.84
2022-11-27T18:04:10.224Z,96.64
2022-11-27T18:05:10.200Z,96.64
2022-11-27T18:06:10.214Z,96.84
2022-11-27T18:07:10.173Z,96.95
2022-11-27T18:08:10.174Z,96.74
2022-11-27T18:09:10.176Z,96.74
2022-11-27T18:10:10.142Z,96.84
2022-11-27T18:11:10.131Z,96.84
2022-11-27T18:12:10.142Z,96.58
2022-11-27T18:13:10.113Z,96.95
2022-11-27T18:14:10.110Z,97.05
2022-11-27T18:15:10.109Z,96.95
2022-11-27T18:16:10.162Z,96.84
2022-11-27T18:17:10.077Z,96.58
2022-11-27T18:18:10.093Z,96.33
2022-11-27T18:19:10.158Z,96.84
2022-11-27T18:20:10.044Z,96.84
2022-11-27T18:21:12.935Z,97.20
2022-11-27T18:22:11.042Z,96.69
2022-11-27T18:23:10.006Z,96.58
2022-11-27T18:24:25.691Z,96.74
2022-11-27T18:25:10.980Z,96.58
2022-11-27T18:26:09.972Z,96.74
2022-11-27T18:27:10.192Z,96.58
2022-11-27T18:28:09.961Z,96.74
2022-11-27T18:29:09.944Z,97.16
2022-11-27T18:30:09.946Z,97.26